Time;durP1;ratioP1;P1;durP2;ratioP2;P2;SDS_P1;SDS_P2;PMS_P1;PMS_P2;Temp;Humidity;BMP_temperature;BMP_pressure;BME280_temperature;BME280_humidity;BME280_pressure;Samples;Min_cycle;Max_cycle;Signal;HPM_P1;HPM_P2
2021/01/22 00:01:24;;;;;;;28.88;17.83;;;230.50;1766.40;;;;;;4962514;28;20516;-70
2021/01/22 00:03:51;;;;;;;27.55;16.75;;;230.50;1766.40;;;;;;4962131;28;20551;-71
2021/01/22 00:06:17;;;;;;;33.03;17.55;;;230.60;1766.40;;;;;;4961273;28;20035;-70
2021/01/22 00:08:42;;;;;;;28.95;17.55;;;230.60;1766.40;;;;;;4963116;28;20123;-70
2021/01/22 00:11:09;;;;;;;34.55;18.52;;;230.60;1766.40;;;;;;4960695;28;20078;-69
2021/01/22 00:13:35;;;;;;;35.78;18.02;;;230.60;1766.40;;;;;;4963007;28;20052;-69
2021/01/22 00:16:01;;;;;;;37.20;18.58;;;230.60;1766.40;;;;;;4961821;28;20549;-70
2021/01/22 00:18:26;;;;;;;33.13;17.92;;;230.70;1766.40;;;;;;4962218;28;20047;-69
2021/01/22 00:20:52;;;;;;;34.13;17.70;;;230.60;1766.40;;;;;;4963166;28;20390;-70
2021/01/22 00:23:18;;;;;;;28.73;16.13;;;230.70;1766.40;;;;;;4976002;28;20121;-71
2021/01/22 00:25:44;;;;;;;32.65;17.92;;;230.70;1766.40;;;;;;5023595;28;20505;-70
2021/01/22 00:28:09;;;;;;;30.92;16.83;;;230.70;1766.40;;;;;;5023419;28;20072;-70
2021/01/22 00:30:35;;;;;;;42.78;22.45;;;230.70;1766.40;;;;;;5021747;28;20034;-69
2021/01/22 00:33:01;;;;;;;35.17;19.08;;;230.70;1766.40;;;;;;5023604;28;20040;-69
2021/01/22 00:35:26;;;;;;;27.42;15.57;;;230.70;1766.40;;;;;;5029050;28;20036;-69
2021/01/22 00:38:01;;;;;;;25.15;14.90;;;230.70;1766.40;;;;;;5033831;28;20044;-69
2021/01/22 00:40:26;;;;;;;27.25;15.32;;;230.70;1740.80;;;;;;5024331;28;20386;-69
2021/01/22 00:42:52;;;;;;;27.65;15.70;;;230.70;1740.80;;;;;;5023210;28;20101;-71
2021/01/22 00:45:18;;;;;;;25.70;15.55;;;230.70;1740.80;;;;;;5023116;28;20029;-70
2021/01/22 00:47:43;;;;;;;29.42;17.02;;;230.70;1740.80;;;;;;5012709;28;20379;-70
2021/01/22 00:50:09;;;;;;;29.50;14.75;;;230.70;1766.40;;;;;;5031919;28;20033;-68
2021/01/22 00:52:35;;;;;;;26.52;14.82;;;230.70;1740.80;;;;;;5025577;28;20034;-68
2021/01/22 00:55:01;;;;;;;21.13;13.82;;;230.70;1766.40;;;;;;5020929;28;20022;-69
2021/01/22 00:57:27;;;;;;;27.13;14.57;;;230.70;1766.40;;;;;;5004033;28;20416;-70
2021/01/22 00:59:52;;;;;;;21.50;13.77;;;230.70;1766.40;;;;;;5023934;28;20383;-70
2021/01/22 01:02:18;;;;;;;22.70;14.00;;;230.70;1740.80;;;;;;5019020;28;20041;-71
2021/01/22 01:04:44;;;;;;;22.73;14.45;;;230.70;1740.80;;;;;;4995650;28;20030;-68
2021/01/22 01:07:09;;;;;;;23.13;13.50;;;230.70;1740.80;;;;;;5013858;28;20109;-69
2021/01/22 01:09:35;;;;;;;22.17;13.55;;;230.80;1766.40;;;;;;5014279;28;20545;-70
2021/01/22 01:12:01;;;;;;;23.95;15.25;;;230.80;1740.80;;;;;;5013319;28;20104;-70
2021/01/22 01:14:26;;;;;;;22.80;14.50;;;230.70;1740.80;;;;;;5014126;28;20068;-71
2021/01/22 01:16:52;;;;;;;23.75;15.68;;;230.70;1740.80;;;;;;5013863;28;20539;-70
2021/01/22 01:19:18;;;;;;;24.95;16.13;;;230.70;1740.80;;;;;;5013868;28;20041;-70
2021/01/22 01:21:44;;;;;;;28.67;16.80;;;230.70;1740.80;;;;;;5013749;28;20054;-72
2021/01/22 01:24:10;;;;;;;32.63;18.52;;;230.70;1740.80;;;;;;5013755;28;20026;-70
2021/01/22 01:26:35;;;;;;;26.75;16.77;;;230.70;1740.80;;;;;;5014001;28;20033;-71
2021/01/22 01:29:01;;;;;;;28.65;15.77;;;230.70;1740.80;;;;;;5013784;28;20034;-70
2021/01/22 01:31:27;;;;;;;28.92;15.88;;;230.70;1740.80;;;;;;5013658;28;20042;-70
2021/01/22 01:33:53;;;;;;;25.77;15.40;;;230.70;1740.80;;;;;;5013821;28;20057;-71
2021/01/22 01:36:18;;;;;;;24.92;14.68;;;230.70;1740.80;;;;;;5013580;28;20117;-70
2021/01/22 01:38:44;;;;;;;23.65;14.25;;;230.70;1740.80;;;;;;5013353;28;20034;-70
2021/01/22 01:41:10;;;;;;;19.90;13.63;;;230.70;1740.80;;;;;;5013687;28;20088;-70
2021/01/22 01:43:35;;;;;;;24.00;14.13;;;230.70;1740.80;;;;;;5013717;28;20105;-70
2021/01/22 01:46:01;;;;;;;20.40;13.90;;;230.70;1740.80;;;;;;5013761;28;20038;-70
2021/01/22 01:48:27;;;;;;;24.15;13.55;;;230.70;1740.80;;;;;;5013779;28;20041;-70
2021/01/22 01:50:53;;;;;;;21.70;13.57;;;230.70;1740.80;;;;;;5013491;28;20026;-70
2021/01/22 01:53:19;;;;;;;20.30;13.45;;;230.70;1740.80;;;;;;5013447;28;20030;-70
2021/01/22 01:55:45;;;;;;;22.50;13.23;;;230.70;1740.80;;;;;;5013525;28;20030;-70
2021/01/22 01:58:12;;;;;;;21.65;13.73;;;230.70;1740.80;;;;;;5013736;28;20030;-70
2021/01/22 02:00:38;;;;;;;23.65;13.77;;;230.70;1740.80;;;;;;5013472;28;20037;-70
2021/01/22 02:03:04;;;;;;;21.83;13.32;;;230.70;1740.80;;;;;;5013590;28;20029;-70
2021/01/22 02:05:30;;;;;;;21.63;13.20;;;230.70;1740.80;;;;;;5013406;28;20059;-70
2021/01/22 02:07:56;;;;;;;21.92;14.27;;;230.60;1740.80;;;;;;5013250;28;20076;-70
2021/01/22 02:10:22;;;;;;;24.92;14.48;;;230.60;1766.40;;;;;;5013048;28;20038;-70
2021/01/22 02:12:51;;;;;;;23.58;13.63;;;230.70;1740.80;;;;;;5015948;28;20533;-70
2021/01/22 02:15:17;;;;;;;20.30;12.95;;;230.60;1740.80;;;;;;5016925;28;20029;-70
2021/01/22 02:17:44;;;;;;;22.80;13.98;;;230.60;1740.80;;;;;;5016919;28;20121;-70
2021/01/22 02:20:37;;;;;;;22.95;14.18;;;230.60;1740.80;;;;;;5017011;28;20152;-70
2021/01/22 02:23:03;;;;;;;23.52;13.90;;;230.50;1740.80;;;;;;5016916;28;20030;-70
2021/01/22 02:25:36;;;;;;;26.45;15.43;;;230.50;1740.80;;;;;;5016743;28;20376;-70
2021/01/22 02:28:06;;;;;;;22.30;14.30;;;230.50;1740.80;;;;;;5016851;28;20026;-71
2021/01/22 02:30:32;;;;;;;24.17;13.73;;;230.50;1740.80;;;;;;5016691;28;20112;-70
2021/01/22 02:32:59;;;;;;;25.75;15.40;;;230.40;1740.80;;;;;;5016871;28;20022;-70
2021/01/22 02:35:25;;;;;;;24.15;14.75;;;230.40;1766.40;;;;;;5016580;28;20033;-70
2021/01/22 02:37:53;;;;;;;27.60;15.23;;;230.40;1766.40;;;;;;5016380;28;20038;-69
2021/01/22 02:40:20;;;;;;;23.60;15.88;;;230.40;1766.40;;;;;;5016758;28;20073;-70
2021/01/22 02:42:48;;;;;;;22.70;15.45;;;230.40;1766.40;;;;;;5016446;28;20029;-70
2021/01/22 02:45:16;;;;;;;24.25;15.38;;;205.70;1766.40;;;;;;5016525;28;20025;-70
2021/01/22 02:47:50;;;;;;;25.13;14.57;;;205.70;1766.40;;;;;;5016053;28;20026;-70
2021/01/22 02:50:18;;;;;;;24.63;15.20;;;205.70;1740.80;;;;;;5016456;28;20491;-70
2021/01/22 02:52:44;;;;;;;23.73;14.05;;;205.70;1766.40;;;;;;5016060;28;20037;-71
2021/01/22 02:55:13;;;;;;;21.85;13.80;;;205.70;1766.40;;;;;;5016170;28;20105;-71
2021/01/22 02:57:49;;;;;;;20.92;13.68;;;205.60;1766.40;;;;;;5016259;28;20030;-72
2021/01/22 03:00:23;;;;;;;27.23;14.52;;;205.60;1766.40;;;;;;5016286;28;20079;-71
2021/01/22 03:03:13;;;;;;;22.95;14.65;;;205.60;1766.40;;;;;;5016134;28;20069;-71
2021/01/22 03:05:40;;;;;;;23.38;13.50;;;205.60;1766.40;;;;;;5015978;28;20030;-71
2021/01/22 03:08:19;;;;;;;23.40;14.00;;;205.50;1766.40;;;;;;5015933;28;20113;-71
2021/01/22 03:10:46;;;;;;;21.90;13.10;;;205.50;1766.40;;;;;;5015867;28;20042;-71
2021/01/22 03:13:13;;;;;;;22.60;13.50;;;205.50;1766.40;;;;;;5016224;28;20026;-70
2021/01/22 03:15:40;;;;;;;24.23;13.68;;;205.50;1766.40;;;;;;5015976;28;20021;-71
2021/01/22 03:18:13;;;;;;;23.90;14.68;;;205.50;1766.40;;;;;;5015914;28;20109;-71
2021/01/22 03:20:41;;;;;;;27.50;14.70;;;205.50;1766.40;;;;;;4998409;28;20132;-71
2021/01/22 03:23:07;;;;;;;22.90;14.02;;;205.40;1766.40;;;;;;5015485;28;20092;-71
2021/01/22 03:25:33;;;;;;;20.63;12.23;;;205.50;1766.40;;;;;;5015615;28;20479;-71
2021/01/22 03:27:58;;;;;;;21.40;12.05;;;205.40;1766.40;;;;;;5015748;28;20026;-70
2021/01/22 03:30:24;;;;;;;19.35;11.48;;;205.40;1766.40;;;;;;5015701;28;20101;-72
2021/01/22 03:32:50;;;;;;;22.73;12.38;;;205.30;1766.40;;;;;;5015461;28;20053;-70
2021/01/22 03:35:17;;;;;;;18.13;11.45;;;205.30;1766.40;;;;;;5015544;28;20057;-70
2021/01/22 03:37:42;;;;;;;19.38;11.27;;;205.30;1766.40;;;;;;5015193;28;20048;-71
2021/01/22 03:40:08;;;;;;;19.27;11.73;;;205.30;1766.40;;;;;;5015510;28;20026;-72
2021/01/22 03:42:34;;;;;;;17.48;11.68;;;205.30;1766.40;;;;;;5014398;28;20104;-71
2021/01/22 03:45:00;;;;;;;17.95;10.93;;;205.30;1766.40;;;;;;5015410;28;20022;-72
2021/01/22 03:47:25;;;;;;;16.83;10.80;;;205.30;1766.40;;;;;;5015357;28;20057;-70
2021/01/22 03:49:51;;;;;;;24.52;11.65;;;205.30;1766.40;;;;;;5015238;28;20483;-71
2021/01/22 03:52:17;;;;;;;24.17;11.00;;;205.20;1766.40;;;;;;5015254;28;20026;-70
2021/01/22 03:54:42;;;;;;;22.27;11.57;;;205.20;1792.00;;;;;;5015002;28;20084;-71
2021/01/22 03:57:08;;;;;;;24.80;11.02;;;205.20;1792.00;;;;;;5014986;28;20085;-70
2021/01/22 03:59:34;;;;;;;23.20;11.68;;;205.20;1766.40;;;;;;4997061;28;20030;-70
2021/01/22 04:01:59;;;;;;;18.33;12.30;;;205.30;1792.00;;;;;;4996969;28;20112;-70
2021/01/22 04:04:25;;;;;;;19.75;11.18;;;205.20;1766.40;;;;;;5014892;28;20068;-70
2021/01/22 04:06:51;;;;;;;17.60;11.82;;;205.20;1766.40;;;;;;5014971;28;20036;-70
2021/01/22 04:09:16;;;;;;;34.58;11.45;;;205.20;1766.40;;;;;;5015056;28;20025;-70
2021/01/22 04:11:42;;;;;;;19.48;11.75;;;205.20;1792.00;;;;;;5014699;28;20491;-71
2021/01/22 04:14:07;;;;;;;18.92;12.00;;;205.20;1766.40;;;;;;5014728;28;20439;-70
2021/01/22 04:16:33;;;;;;;18.45;11.57;;;205.10;1792.00;;;;;;5014784;28;20045;-71
2021/01/22 04:18:59;;;;;;;20.88;12.25;;;205.20;1766.40;;;;;;5014756;28;20120;-71
2021/01/22 04:21:25;;;;;;;17.05;10.88;;;205.10;1766.40;;;;;;5014124;28;20026;-71
2021/01/22 04:23:51;;;;;;;19.90;11.68;;;205.10;1766.40;;;;;;5014706;28;20057;-69
2021/01/22 04:26:16;;;;;;;20.17;11.05;;;205.10;1766.40;;;;;;5014554;28;20030;-70
2021/01/22 04:28:42;;;;;;;16.80;10.20;;;205.10;1766.40;;;;;;5014601;28;20372;-69
2021/01/22 04:31:08;;;;;;;18.35;11.90;;;205.00;1766.40;;;;;;5014820;28;20049;-69
2021/01/22 04:33:33;;;;;;;19.13;12.45;;;205.00;1766.40;;;;;;4996701;28;20066;-69
2021/01/22 04:35:59;;;;;;;18.25;11.52;;;205.00;1766.40;;;;;;5013789;28;20026;-70
2021/01/22 04:38:43;;;;;;;16.98;11.73;;;205.00;1766.40;;;;;;5014452;28;20045;-71
2021/01/22 04:41:11;;;;;;;17.75;12.35;;;205.00;1766.40;;;;;;5014491;28;20069;-70
2021/01/22 04:43:44;;;;;;;20.77;12.50;;;204.90;1792.00;;;;;;5014350;28;20026;-70
2021/01/22 04:46:10;;;;;;;19.33;12.40;;;204.90;1766.40;;;;;;5014488;28;20046;-71
2021/01/22 04:48:37;;;;;;;18.17;11.43;;;204.90;1766.40;;;;;;5014175;28;20547;-70
2021/01/22 04:51:04;;;;;;;17.60;11.05;;;204.90;1792.00;;;;;;5014038;28;20475;-70
2021/01/22 04:53:34;;;;;;;20.38;11.70;;;204.90;1792.00;;;;;;5014350;28;20026;-70
2021/01/22 04:56:01;;;;;;;18.50;11.15;;;204.90;1766.40;;;;;;5014036;28;20037;-70
2021/01/22 04:58:29;;;;;;;21.42;12.32;;;204.90;1792.00;;;;;;5014235;28;20034;-70
2021/01/22 05:00:55;;;;;;;18.55;10.82;;;204.80;1792.00;;;;;;5013728;28;20026;-70
2021/01/22 05:03:27;;;;;;;17.73;11.35;;;204.80;1792.00;;;;;;5013754;28;20414;-70
2021/01/22 05:05:57;;;;;;;18.08;11.20;;;204.80;1792.00;;;;;;5014053;28;20026;-70
2021/01/22 05:08:23;;;;;;;19.60;11.43;;;204.80;1792.00;;;;;;5014037;28;20157;-70
2021/01/22 05:10:49;;;;;;;15.88;11.02;;;204.80;1792.00;;;;;;5013815;28;20508;-70
2021/01/22 05:13:15;;;;;;;17.80;11.52;;;204.80;1792.00;;;;;;5013706;28;20129;-70
2021/01/22 05:15:41;;;;;;;23.20;12.27;;;204.80;1792.00;;;;;;5013575;28;20053;-70
2021/01/22 05:18:08;;;;;;;19.65;11.88;;;204.80;1792.00;;;;;;5013799;28;20451;-70
2021/01/22 05:20:43;;;;;;;17.63;10.93;;;204.80;1792.00;;;;;;5013856;28;20487;-70
2021/01/22 05:23:10;;;;;;;17.77;10.77;;;204.80;1792.00;;;;;;5013983;28;20034;-70
2021/01/22 05:26:00;;;;;;;21.27;10.75;;;204.80;1792.00;;;;;;4996329;28;20033;-70
2021/01/22 05:28:34;;;;;;;19.48;11.20;;;204.80;1792.00;;;;;;5013717;28;20026;-70
2021/01/22 05:31:00;;;;;;;19.38;10.82;;;180.10;1792.00;;;;;;5014026;28;20033;-70
2021/01/22 05:33:26;;;;;;;17.65;10.50;;;180.10;1792.00;;;;;;5014002;28;20026;-70
2021/01/22 05:35:52;;;;;;;17.42;10.43;;;180.10;1792.00;;;;;;5013621;28;20089;-70
2021/01/22 05:38:18;;;;;;;27.83;11.02;;;180.10;1792.00;;;;;;5013258;28;20042;-70
2021/01/22 05:40:50;;;;;;;20.90;11.32;;;180.00;1792.00;;;;;;5013508;28;20029;-70
2021/01/22 05:43:17;;;;;;;17.95;11.05;;;180.00;1792.00;;;;;;4996024;28;20509;-70
2021/01/22 05:45:46;;;;;;;21.73;11.48;;;180.10;1792.00;;;;;;5014544;28;20018;-70
2021/01/22 05:48:23;;;;;;;32.13;15.90;;;180.00;1792.00;;;;;;5017618;28;20025;-70
2021/01/22 05:50:54;;;;;;;44.38;19.40;;;180.00;1792.00;;;;;;4999856;28;20029;-70
2021/01/22 05:53:20;;;;;;;31.25;15.30;;;180.00;1792.00;;;;;;5017373;28;20101;-70
2021/01/22 05:56:08;;;;;;;23.63;13.13;;;180.00;1792.00;;;;;;5017340;28;20047;-71
2021/01/22 05:58:35;;;;;;;17.00;10.45;;;180.00;1792.00;;;;;;5017390;28;20081;-71
2021/01/22 06:01:16;;;;;;;16.67;9.98;;;180.00;1792.00;;;;;;5017355;28;20030;-71
2021/01/22 06:03:45;;;;;;;15.35;10.02;;;180.00;1792.00;;;;;;5017364;28;20423;-71
2021/01/22 06:06:11;;;;;;;16.63;10.07;;;180.00;1792.00;;;;;;5017123;28;20360;-71
2021/01/22 06:08:54;;;;;;;16.95;10.85;;;180.00;1792.00;;;;;;5017356;28;20026;-71
2021/01/22 06:11:28;;;;;;;16.55;8.80;;;180.00;1792.00;;;;;;5017149;28;20056;-71
2021/01/22 06:13:56;;;;;;;17.92;10.93;;;180.00;1792.00;;;;;;5017024;28;20050;-71
2021/01/22 06:16:25;;;;;;;20.73;12.55;;;180.00;1792.00;;;;;;5016754;28;20128;-71
2021/01/22 06:18:57;;;;;;;21.80;12.25;;;180.00;1792.00;;;;;;5016852;28;20026;-71
2021/01/22 06:21:25;;;;;;;26.98;13.35;;;180.00;1792.00;;;;;;5016736;28;20033;-71
2021/01/22 06:23:52;;;;;;;21.85;13.05;;;180.00;1792.00;;;;;;5016909;28;20026;-71
2021/01/22 06:26:19;;;;;;;35.05;15.38;;;180.00;1792.00;;;;;;5016954;28;20029;-70
2021/01/22 06:28:47;;;;;;;27.25;13.60;;;180.00;1792.00;;;;;;5016367;28;20487;-70
2021/01/22 06:31:13;;;;;;;17.25;11.60;;;180.00;1792.00;;;;;;5016881;28;20034;-70
2021/01/22 06:33:40;;;;;;;18.65;11.25;;;180.00;1792.00;;;;;;5016611;28;20026;-70
2021/01/22 06:36:07;;;;;;;14.80;9.07;;;180.10;1792.00;;;;;;5016019;28;20509;-71
2021/01/22 06:38:33;;;;;;;14.68;9.43;;;180.10;1792.00;;;;;;5016723;28;20030;-71
2021/01/22 06:41:00;;;;;;;11.63;7.50;;;180.10;1792.00;;;;;;5016672;28;20053;-70
2021/01/22 06:43:26;;;;;;;12.32;8.43;;;180.10;1792.00;;;;;;5016003;28;20479;-70
2021/01/22 06:46:01;;;;;;;17.65;8.90;;;180.10;1792.00;;;;;;5016885;28;20054;-70
2021/01/22 06:48:27;;;;;;;12.18;8.02;;;204.80;1792.00;;;;;;5016583;28;20108;-70
2021/01/22 06:51:14;;;;;;;15.88;8.52;;;204.80;1792.00;;;;;;5016189;28;20022;-70
2021/01/22 06:54:07;;;;;;;14.30;9.05;;;204.80;1792.00;;;;;;5016305;28;20034;-70
2021/01/22 06:56:33;;;;;;;15.10;8.43;;;204.80;1792.00;;;;;;5016306;28;20030;-71
2021/01/22 06:59:21;;;;;;;15.75;8.90;;;204.80;1792.00;;;;;;4997954;28;20036;-70
2021/01/22 07:01:49;;;;;;;16.52;8.23;;;204.90;1792.00;;;;;;5016223;28;20030;-70
2021/01/22 07:04:33;;;;;;;14.70;9.10;;;204.90;1792.00;;;;;;5016302;28;20029;-70
2021/01/22 07:07:01;;;;;;;16.58;9.10;;;204.90;1792.00;;;;;;5016125;28;20026;-70
2021/01/22 07:09:43;;;;;;;16.52;9.07;;;204.90;1792.00;;;;;;5016123;28;20030;-70
2021/01/22 07:12:13;;;;;;;20.58;9.73;;;205.00;1792.00;;;;;;4998275;28;20052;-70
2021/01/22 07:14:41;;;;;;;18.20;9.90;;;205.00;1792.00;;;;;;5016017;28;20034;-70
2021/01/22 07:17:20;;;;;;;17.35;11.40;;;205.00;1792.00;;;;;;5015651;28;20547;-70
2021/01/22 07:20:00;;;;;;;18.85;10.20;;;205.00;1792.00;;;;;;5015455;28;20034;-70
2021/01/22 07:22:31;;;;;;;15.65;9.82;;;205.10;1792.00;;;;;;4998263;28;20033;-70
2021/01/22 07:24:59;;;;;;;19.50;11.15;;;205.10;1792.00;;;;;;5015810;28;20034;-70
2021/01/22 07:27:44;;;;;;;16.08;10.30;;;205.20;1792.00;;;;;;5015636;28;20030;-69
2021/01/22 07:30:09;;;;;;;;;;;205.20;1792.00;;;;;;5016201;28;20096;-70
2021/01/22 07:32:35;;;;;;;14.50;8.43;;;205.30;1792.00;;;;;;5015722;28;19910;-70
2021/01/22 07:35:07;;;;;;;14.13;9.65;;;205.30;1792.00;;;;;;5015211;28;20430;-70
2021/01/22 07:37:38;;;;;;;13.85;8.25;;;205.30;1792.00;;;;;;5015424;28;20033;-71
2021/01/22 07:40:12;;;;;;;15.57;8.18;;;205.30;1792.00;;;;;;5015547;28;20076;-72
2021/01/22 07:42:39;;;;;;;13.88;8.73;;;205.40;1792.00;;;;;;5015538;28;20053;-70
2021/01/22 07:45:07;;;;;;;18.95;9.35;;;205.40;1792.00;;;;;;5015248;28;20491;-70
2021/01/22 07:47:36;;;;;;;18.92;10.27;;;205.50;1792.00;;;;;;5015279;28;20022;-69
2021/01/22 07:50:13;;;;;;;12.98;8.43;;;205.50;1792.00;;;;;;5015389;28;20025;-69
2021/01/22 07:52:44;;;;;;;14.30;8.68;;;205.60;1766.40;;;;;;5015406;28;20049;-69
2021/01/22 07:55:20;;;;;;;14.25;8.40;;;205.60;1766.40;;;;;;5015153;28;20036;-69
2021/01/22 07:58:00;;;;;;;12.27;7.38;;;205.70;1766.40;;;;;;5015241;28;20026;-69
2021/01/22 08:00:35;;;;;;;14.27;8.30;;;205.70;1766.40;;;;;;5015178;28;20495;-69
2021/01/22 08:03:01;;;;;;;15.27;9.45;;;230.40;1766.40;;;;;;5015150;28;20026;-69
2021/01/22 08:05:37;;;;;;;23.40;10.35;;;230.40;1766.40;;;;;;5014121;28;20580;-70
2021/01/22 08:08:15;;;;;;;16.90;9.75;;;230.50;1766.40;;;;;;5014544;28;20032;-70
2021/01/22 08:10:41;;;;;;;18.55;10.85;;;230.60;1766.40;;;;;;5013672;28;20046;-70
2021/01/22 08:13:07;;;;;;;17.05;10.48;;;230.60;1766.40;;;;;;5014194;28;20033;-70
2021/01/22 08:15:32;;;;;;;14.20;9.23;;;230.70;1766.40;;;;;;5014369;28;20175;-70
2021/01/22 08:17:58;;;;;;;16.13;9.68;;;230.70;1740.80;;;;;;5014384;28;20495;-70
2021/01/22 08:20:24;;;;;;;20.77;9.85;;;230.80;1740.80;;;;;;5014588;28;20049;-70
2021/01/22 08:22:53;;;;;;;15.18;10.35;;;230.80;1766.40;;;;;;5014841;28;20109;-70
2021/01/22 08:35:38;;;;;;;18.20;9.90;;;231.20;1740.80;;;;;;5014926;28;20077;-70
2021/01/22 08:38:04;;;;;;;18.55;11.00;;;231.30;1766.40;;;;;;5014375;28;20065;-70
2021/01/22 08:50:57;;;;;;;21.17;9.50;;;256.40;1740.80;;;;;;5014745;28;20022;-70
2021/01/22 08:53:23;;;;;;;21.05;12.15;;;256.40;1715.20;;;;;;5014352;28;20595;-70
2021/01/22 09:06:08;;;;;;;19.73;10.48;;;256.70;1715.20;;;;;;5014669;28;20030;-70
2021/01/22 09:08:34;;;;;;;20.63;11.50;;;256.80;1715.20;;;;;;5014073;28;20084;-69
2021/01/22 09:23:11;;;;;;;14.38;8.75;;;281.80;1715.20;;;;;;3489467;23;20534;-72
2021/01/22 09:25:37;;;;;;;11.90;7.50;;;281.90;1715.20;;;;;;5014832;28;20042;-72
2021/01/22 09:28:03;;;;;;;14.25;7.53;;;282.00;1740.80;;;;;;5019639;28;20044;-71
2021/01/22 09:30:29;;;;;;;14.38;7.88;;;282.00;1715.20;;;;;;5000782;28;20040;-70
2021/01/22 09:32:57;;;;;;;11.63;7.60;;;282.10;1715.20;;;;;;5019145;28;20112;-71
2021/01/22 09:35:28;;;;;;;17.30;7.30;;;282.20;1715.20;;;;;;5019729;28;20030;-72
2021/01/22 09:37:54;;;;;;;13.30;7.63;;;282.30;1715.20;;;;;;5018863;28;20132;-70
2021/01/22 09:40:21;;;;;;;10.95;7.05;;;282.40;1715.20;;;;;;5019376;28;20118;-72
2021/01/22 09:42:47;;;;;;;11.55;7.22;;;282.50;1715.20;;;;;;5019302;28;20080;-70
2021/01/22 09:45:14;;;;;;;16.17;7.30;;;307.20;1715.20;;;;;;5015918;28;20018;-71
2021/01/22 09:47:41;;;;;;;16.20;8.18;;;307.30;1715.20;;;;;;5018604;28;20032;-70
2021/01/22 09:50:08;;;;;;;17.15;8.50;;;307.40;1715.20;;;;;;5018519;28;20033;-70
2021/01/22 09:52:36;;;;;;;20.58;9.10;;;307.40;1689.60;;;;;;5016894;28;20026;-70
2021/01/22 09:55:03;;;;;;;13.88;7.95;;;307.60;1689.60;;;;;;5001670;28;20034;-71
2021/01/22 09:57:29;;;;;;;15.35;7.85;;;307.70;1715.20;;;;;;5017298;28;20039;-70
2021/01/22 09:59:55;;;;;;;12.85;8.27;;;307.80;1689.60;;;;;;5015510;28;20080;-71
2021/01/22 10:02:21;;;;;;;19.55;8.70;;;307.90;1689.60;;;;;;5019072;28;20022;-70
2021/01/22 10:04:47;;;;;;;19.88;8.20;;;307.90;1664.00;;;;;;5015897;28;20604;-70
2021/01/22 10:07:13;;;;;;;16.67;7.90;;;307.90;1664.00;;;;;;5017910;28;20025;-71
2021/01/22 10:09:38;;;;;;;16.80;7.72;;;308.00;1664.00;;;;;;5019192;28;20045;-71
2021/01/22 10:12:06;;;;;;;16.85;7.85;;;308.10;1664.00;;;;;;5018965;28;20064;-70
2021/01/22 10:14:32;;;;;;;14.68;6.68;;;308.10;1664.00;;;;;;5020006;28;20033;-71
2021/01/22 10:16:58;;;;;;;13.93;7.50;;;308.10;1664.00;;;;;;5020096;28;20030;-70
2021/01/22 10:19:24;;;;;;;16.13;7.80;;;332.80;1664.00;;;;;;5020023;28;20042;-70
2021/01/22 10:21:49;;;;;;;13.32;7.00;;;332.80;1664.00;;;;;;5020121;28;20030;-70
2021/01/22 10:24:16;;;;;;;19.25;7.13;;;332.90;1664.00;;;;;;5019785;28;20376;-70
2021/01/22 10:26:45;;;;;;;13.00;7.38;;;332.90;1664.00;;;;;;5020150;28;20025;-70
2021/01/22 10:29:12;;;;;;;15.02;8.32;;;332.90;1638.40;;;;;;5020154;28;20029;-70
2021/01/22 10:31:37;;;;;;;13.00;7.30;;;333.00;1638.40;;;;;;5019301;28;20021;-70
2021/01/22 10:34:03;;;;;;;18.17;7.47;;;333.10;1638.40;;;;;;5016091;28;20030;-70
2021/01/22 10:36:29;;;;;;;15.43;7.22;;;333.10;1638.40;;;;;;5016698;28;20065;-70
2021/01/22 10:38:55;;;;;;;13.73;7.53;;;333.10;1638.40;;;;;;5016937;28;20053;-69
2021/01/22 10:41:22;;;;;;;18.17;8.00;;;333.20;1638.40;;;;;;5016838;28;20056;-69
2021/01/22 10:43:48;;;;;;;17.92;7.82;;;333.20;1638.40;;;;;;5016786;28;20109;-70
2021/01/22 10:46:13;;;;;;;18.70;7.70;;;333.30;1638.40;;;;;;5016476;28;20057;-70
2021/01/22 10:48:39;;;;;;;12.30;7.68;;;333.30;1638.40;;;;;;5016515;28;20025;-70
2021/01/22 10:51:07;;;;;;;17.92;7.90;;;333.30;1638.40;;;;;;5016746;28;20037;-71
2021/01/22 10:53:36;;;;;;;20.92;8.30;;;333.30;1638.40;;;;;;5016395;28;20495;-71
2021/01/22 10:56:03;;;;;;;18.35;8.85;;;333.20;1638.40;;;;;;5016869;28;20092;-72
2021/01/22 10:58:28;;;;;;;14.25;9.45;;;333.20;1638.40;;;;;;5016714;28;20029;-71
2021/01/22 11:00:54;;;;;;;19.20;9.57;;;333.20;1638.40;;;;;;5016378;28;20018;-72
2021/01/22 11:03:20;;;;;;;15.65;8.50;;;333.20;1638.40;;;;;;4998250;28;20395;-71
2021/01/22 11:05:46;;;;;;;24.73;9.57;;;333.20;1638.40;;;;;;5016325;28;20018;-71
2021/01/22 11:08:12;;;;;;;18.17;8.82;;;333.30;1638.40;;;;;;4998295;28;20084;-71
2021/01/22 11:10:38;;;;;;;14.80;9.15;;;333.30;1638.40;;;;;;5015826;28;20553;-71
2021/01/22 11:13:04;;;;;;;20.05;9.75;;;333.30;1638.40;;;;;;5016447;28;20460;-72
2021/01/22 11:15:31;;;;;;;17.38;8.68;;;333.30;1664.00;;;;;;5016149;28;20493;-71
2021/01/22 11:17:57;;;;;;;15.70;8.05;;;333.40;1638.40;;;;;;5015871;28;20034;-72
2021/01/22 11:20:23;;;;;;;13.23;7.68;;;333.40;1638.40;;;;;;5015904;28;20033;-72
2021/01/22 11:22:49;;;;;;;13.60;7.40;;;333.40;1664.00;;;;;;5015687;28;20030;-71
2021/01/22 11:25:17;;;;;;;16.55;8.10;;;333.40;1664.00;;;;;;5015634;28;20101;-71
2021/01/22 11:27:43;;;;;;;17.08;7.72;;;333.40;1664.00;;;;;;5015970;28;20040;-72
2021/01/22 11:30:10;;;;;;;11.35;7.30;;;333.40;1664.00;;;;;;5015896;28;20026;-71
2021/01/22 11:32:36;;;;;;;16.85;7.97;;;333.40;1664.00;;;;;;5015760;28;20114;-72
2021/01/22 11:35:04;;;;;;;12.73;6.80;;;333.50;1664.00;;;;;;5015847;28;20033;-71
2021/01/22 11:37:30;;;;;;;15.38;8.45;;;333.40;1664.00;;;;;;5015365;28;20429;-71
2021/01/22 11:39:56;;;;;;;18.65;7.10;;;333.50;1664.00;;;;;;5014558;28;20026;-72
2021/01/22 11:42:21;;;;;;;15.70;6.97;;;333.50;1664.00;;;;;;5015596;28;20025;-72
2021/01/22 11:44:48;;;;;;;11.90;6.90;;;333.60;1664.00;;;;;;5011045;28;20107;-71
2021/01/22 11:47:14;;;;;;;15.65;7.32;;;358.40;1689.60;;;;;;5014273;28;20383;-72
2021/01/22 11:49:40;;;;;;;20.45;7.53;;;358.60;1664.00;;;;;;5014447;28;20034;-72
2021/01/22 11:52:06;;;;;;;17.75;7.47;;;358.80;1638.40;;;;;;5014090;28;20037;-71
2021/01/22 11:54:32;;;;;;;20.00;9.45;;;359.00;1638.40;;;;;;5014299;28;20018;-71
2021/01/22 11:56:58;;;;;;;21.17;8.27;;;359.10;1612.80;;;;;;5014328;28;20479;-71
2021/01/22 11:59:24;;;;;;;13.15;7.25;;;359.30;1587.20;;;;;;5011445;28;20032;-71
2021/01/22 12:01:49;;;;;;;12.95;7.35;;;359.30;1561.60;;;;;;5008185;28;20030;-71
2021/01/22 12:04:15;;;;;;;19.05;7.57;;;384.00;1561.60;;;;;;5003571;28;20464;-70
2021/01/22 12:06:41;;;;;;;12.63;6.47;;;384.00;1561.60;;;;;;5005117;28;20022;-71
2021/01/22 12:09:07;;;;;;;14.77;7.07;;;384.00;1536.00;;;;;;5006256;28;20026;-71
2021/01/22 12:11:33;;;;;;;17.67;7.20;;;359.30;1561.60;;;;;;5005677;28;20050;-71
2021/01/22 12:13:59;;;;;;;17.05;7.65;;;359.30;1561.60;;;;;;5005018;28;20036;-71
2021/01/22 12:16:25;;;;;;;18.25;8.38;;;359.30;1561.60;;;;;;5003319;28;20845;-71
2021/01/22 12:18:53;;;;;;;16.45;7.93;;;359.30;1561.60;;;;;;5004988;28;20023;-71
2021/01/22 12:21:18;;;;;;;15.75;8.30;;;359.30;1561.60;;;;;;5004043;28;20075;-71
2021/01/22 12:23:44;;;;;;;16.65;8.88;;;384.00;1561.60;;;;;;4986122;28;20480;-71
2021/01/22 12:26:11;;;;;;;18.67;9.02;;;384.00;1561.60;;;;;;5002154;28;20022;-71
2021/01/22 12:28:37;;;;;;;19.33;8.65;;;384.00;1561.60;;;;;;5004294;28;20356;-72
2021/01/22 12:31:07;;;;;;;16.77;8.25;;;384.10;1561.60;;;;;;5001270;28;20442;-71
2021/01/22 12:33:33;;;;;;;17.38;8.25;;;384.00;1561.60;;;;;;5002229;28;20022;-71
2021/01/22 12:35:59;;;;;;;13.60;8.32;;;384.10;1587.20;;;;;;5003392;28;20018;-72
2021/01/22 12:38:26;;;;;;;20.50;8.15;;;384.10;1587.20;;;;;;5004040;28;20518;-71
2021/01/22 12:40:52;;;;;;;18.80;8.15;;;384.20;1587.20;;;;;;5002268;28;20472;-71
2021/01/22 12:43:18;;;;;;;14.73;7.35;;;384.20;1587.20;;;;;;5003570;28;20053;-72
2021/01/22 12:45:44;;;;;;;13.25;7.75;;;384.30;1587.20;;;;;;5001867;28;20056;-71
2021/01/22 12:48:10;;;;;;;18.65;9.02;;;384.30;1561.60;;;;;;5004041;28;20101;-71
2021/01/22 12:50:36;;;;;;;29.05;10.60;;;384.30;1561.60;;;;;;5002937;28;20424;-71